sensor_id;sensor_type;location;lat;lon;timestamp;temperature;humidity
40538;DHT22;27925;41.874;12.526;2023-05-29T00:02:14;22.40;65.40
40538;DHT22;27925;41.874;12.526;2023-05-29T00:04:40;22.30;65.30
40538;DHT22;27925;41.874;12.526;2023-05-29T00:07:06;22.30;65.60
40538;DHT22;27925;41.874;12.526;2023-05-29T00:09:31;22.20;65.80
40538;DHT22;27925;41.874;12.526;2023-05-29T00:11:57;22.00;65.70
40538;DHT22;27925;41.874;12.526;2023-05-29T00:14:23;22.00;66.20
40538;DHT22;27925;41.874;12.526;2023-05-29T00:16:50;22.00;66.30
40538;DHT22;27925;41.874;12.526;2023-05-29T00:19:16;22.10;66.50
40538;DHT22;27925;41.874;12.526;2023-05-29T00:21:43;22.00;66.80
40538;DHT22;27925;41.874;12.526;2023-05-29T00:24:08;22.00;66.70
40538;DHT22;27925;41.874;12.526;2023-05-29T00:26:34;22.00;66.60
40538;DHT22;27925;41.874;12.526;2023-05-29T00:29:00;22.10;66.70
40538;DHT22;27925;41.874;12.526;2023-05-29T00:31:26;22.10;66.70
40538;DHT22;27925;41.874;12.526;2023-05-29T00:33:51;22.10;66.70
40538;DHT22;27925;41.874;12.526;2023-05-29T00:36:17;22.10;66.70
40538;DHT22;27925;41.874;12.526;2023-05-29T00:38:43;22.10;66.70
40538;DHT22;27925;41.874;12.526;2023-05-29T00:41:14;22.10;66.70
40538;DHT22;27925;41.874;12.526;2023-05-29T00:43:41;22.00;66.70
40538;DHT22;27925;41.874;12.526;2023-05-29T00:46:07;21.90;66.70
40538;DHT22;27925;41.874;12.526;2023-05-29T00:48:33;21.80;66.80
40538;DHT22;27925;41.874;12.526;2023-05-29T00:50:59;21.70;67.10
40538;DHT22;27925;41.874;12.526;2023-05-29T00:53:25;21.70;67.30
40538;DHT22;27925;41.874;12.526;2023-05-29T00:55:52;21.70;67.30
40538;DHT22;27925;41.874;12.526;2023-05-29T00:58:18;21.70;67.20
40538;DHT22;27925;41.874;12.526;2023-05-29T01:00:44;21.70;67.10
40538;DHT22;27925;41.874;12.526;2023-05-29T01:03:11;21.60;67.40
40538;DHT22;27925;41.874;12.526;2023-05-29T01:05:40;21.60;67.50
40538;DHT22;27925;41.874;12.526;2023-05-29T01:08:06;21.60;67.50
40538;DHT22;27925;41.874;12.526;2023-05-29T01:10:33;21.50;67.40
40538;DHT22;27925;41.874;12.526;2023-05-29T01:15:55;21.40;67.50
40538;DHT22;27925;41.874;12.526;2023-05-29T01:19:34;21.40;67.50
40538;DHT22;27925;41.874;12.526;2023-05-29T01:22:09;21.50;68.00
40538;DHT22;27925;41.874;12.526;2023-05-29T01:27:17;21.40;67.60
40538;DHT22;27925;41.874;12.526;2023-05-29T01:29:46;21.40;67.40
40538;DHT22;27925;41.874;12.526;2023-05-29T01:32:12;21.40;67.40
40538;DHT22;27925;41.874;12.526;2023-05-29T01:34:38;21.30;67.50
40538;DHT22;27925;41.874;12.526;2023-05-29T01:37:04;21.30;67.70
40538;DHT22;27925;41.874;12.526;2023-05-29T01:39:31;21.40;67.80
40538;DHT22;27925;41.874;12.526;2023-05-29T01:41:57;21.40;67.60
40538;DHT22;27925;41.874;12.526;2023-05-29T01:44:24;21.40;67.80
40538;DHT22;27925;41.874;12.526;2023-05-29T01:46:50;21.30;67.60
40538;DHT22;27925;41.874;12.526;2023-05-29T01:49:16;21.30;67.70
40538;DHT22;27925;41.874;12.526;2023-05-29T01:51:42;21.20;68.00
40538;DHT22;27925;41.874;12.526;2023-05-29T01:54:08;21.20;68.00
40538;DHT22;27925;41.874;12.526;2023-05-29T01:56:35;21.20;68.10
40538;DHT22;27925;41.874;12.526;2023-05-29T01:59:02;21.20;68.20
40538;DHT22;27925;41.874;12.526;2023-05-29T02:01:29;21.20;68.20
40538;DHT22;27925;41.874;12.526;2023-05-29T02:03:55;21.20;68.10
40538;DHT22;27925;41.874;12.526;2023-05-29T02:06:20;21.20;68.30
40538;DHT22;27925;41.874;12.526;2023-05-29T02:08:47;21.20;68.30
40538;DHT22;27925;41.874;12.526;2023-05-29T02:11:12;21.10;68.20
40538;DHT22;27925;41.874;12.526;2023-05-29T02:13:38;21.10;68.30
40538;DHT22;27925;41.874;12.526;2023-05-29T02:16:04;21.10;68.30
40538;DHT22;27925;41.874;12.526;2023-05-29T02:18:30;21.00;68.50
40538;DHT22;27925;41.874;12.526;2023-05-29T02:20:57;21.00;68.50
40538;DHT22;27925;41.874;12.526;2023-05-29T02:23:22;21.00;68.50
40538;DHT22;27925;41.874;12.526;2023-05-29T02:25:48;21.10;68.60
40538;DHT22;27925;41.874;12.526;2023-05-29T02:28:14;21.10;68.80
40538;DHT22;27925;41.874;12.526;2023-05-29T02:30:40;21.00;68.50
40538;DHT22;27925;41.874;12.526;2023-05-29T02:33:05;21.00;68.70
40538;DHT22;27925;41.874;12.526;2023-05-29T02:35:34;21.00;69.20
40538;DHT22;27925;41.874;12.526;2023-05-29T02:38:00;21.00;68.70
40538;DHT22;27925;41.874;12.526;2023-05-29T02:40:25;21.10;68.70
40538;DHT22;27925;41.874;12.526;2023-05-29T02:42:51;21.00;68.40
40538;DHT22;27925;41.874;12.526;2023-05-29T02:45:17;21.10;68.60
40538;DHT22;27925;41.874;12.526;2023-05-29T02:47:43;21.00;68.50
40538;DHT22;27925;41.874;12.526;2023-05-29T02:50:09;21.10;68.80
40538;DHT22;27925;41.874;12.526;2023-05-29T02:52:35;21.10;69.00
40538;DHT22;27925;41.874;12.526;2023-05-29T02:55:05;21.00;69.20
40538;DHT22;27925;41.874;12.526;2023-05-29T02:57:31;21.10;69.10
40538;DHT22;27925;41.874;12.526;2023-05-29T02:59:58;21.00;68.90
40538;DHT22;27925;41.874;12.526;2023-05-29T03:02:23;20.90;69.10
40538;DHT22;27925;41.874;12.526;2023-05-29T03:04:49;20.90;69.20
40538;DHT22;27925;41.874;12.526;2023-05-29T03:07:16;20.90;69.30
40538;DHT22;27925;41.874;12.526;2023-05-29T03:09:42;20.80;69.50
40538;DHT22;27925;41.874;12.526;2023-05-29T03:12:08;20.70;69.40
40538;DHT22;27925;41.874;12.526;2023-05-29T03:14:33;20.70;69.90
40538;DHT22;27925;41.874;12.526;2023-05-29T03:17:05;20.60;69.70
40538;DHT22;27925;41.874;12.526;2023-05-29T03:19:31;20.60;69.60
40538;DHT22;27925;41.874;12.526;2023-05-29T03:21:56;20.60;69.50
40538;DHT22;27925;41.874;12.526;2023-05-29T03:24:22;20.70;69.70
40538;DHT22;27925;41.874;12.526;2023-05-29T03:26:49;20.70;69.70
40538;DHT22;27925;41.874;12.526;2023-05-29T03:29:15;20.70;69.80
40538;DHT22;27925;41.874;12.526;2023-05-29T03:31:42;20.60;69.50
40538;DHT22;27925;41.874;12.526;2023-05-29T03:34:07;20.60;69.90
40538;DHT22;27925;41.874;12.526;2023-05-29T03:36:33;20.60;70.00
40538;DHT22;27925;41.874;12.526;2023-05-29T03:39:02;20.60;70.00
40538;DHT22;27925;41.874;12.526;2023-05-29T03:41:28;20.60;69.90
40538;DHT22;27925;41.874;12.526;2023-05-29T03:43:53;20.50;70.10
40538;DHT22;27925;41.874;12.526;2023-05-29T03:46:19;20.50;69.90
40538;DHT22;27925;41.874;12.526;2023-05-29T03:48:45;20.50;70.20
40538;DHT22;27925;41.874;12.526;2023-05-29T03:51:11;20.50;70.20
40538;DHT22;27925;41.874;12.526;2023-05-29T03:53:36;20.50;70.10
40538;DHT22;27925;41.874;12.526;2023-05-29T03:56:02;20.50;70.20
40538;DHT22;27925;41.874;12.526;2023-05-29T03:58:28;20.50;70.10
40538;DHT22;27925;41.874;12.526;2023-05-29T04:00:54;20.50;70.10
40538;DHT22;27925;41.874;12.526;2023-05-29T04:03:19;20.60;70.10
40538;DHT22;27925;41.874;12.526;2023-05-29T04:05:45;20.60;69.90
40538;DHT22;27925;41.874;12.526;2023-05-29T04:08:11;20.70;70.00
40538;DHT22;27925;41.874;12.526;2023-05-29T04:10:38;20.70;69.90
40538;DHT22;27925;41.874;12.526;2023-05-29T04:13:04;20.70;70.00
40538;DHT22;27925;41.874;12.526;2023-05-29T04:15:31;20.70;69.90
40538;DHT22;27925;41.874;12.526;2023-05-29T04:17:59;20.70;69.90
40538;DHT22;27925;41.874;12.526;2023-05-29T04:20:25;20.70;69.90
40538;DHT22;27925;41.874;12.526;2023-05-29T04:22:51;20.70;69.80
40538;DHT22;27925;41.874;12.526;2023-05-29T04:25:17;20.70;69.60
40538;DHT22;27925;41.874;12.526;2023-05-29T04:27:44;20.80;69.80
40538;DHT22;27925;41.874;12.526;2023-05-29T04:30:14;20.80;69.70
40538;DHT22;27925;41.874;12.526;2023-05-29T04:32:40;20.80;69.50
40538;DHT22;27925;41.874;12.526;2023-05-29T04:35:07;20.80;69.90
40538;DHT22;27925;41.874;12.526;2023-05-29T04:37:32;20.80;69.90
40538;DHT22;27925;41.874;12.526;2023-05-29T04:40:11;20.70;69.60
40538;DHT22;27925;41.874;12.526;2023-05-29T04:42:39;20.70;70.00
40538;DHT22;27925;41.874;12.526;2023-05-29T04:45:07;20.70;70.50
40538;DHT22;27925;41.874;12.526;2023-05-29T04:47:36;20.70;70.00
40538;DHT22;27925;41.874;12.526;2023-05-29T04:50:10;20.70;69.90
40538;DHT22;27925;41.874;12.526;2023-05-29T04:52:37;20.70;70.40
40538;DHT22;27925;41.874;12.526;2023-05-29T04:55:03;20.70;70.00
40538;DHT22;27925;41.874;12.526;2023-05-29T04:57:28;20.70;70.00
40538;DHT22;27925;41.874;12.526;2023-05-29T04:59:54;20.60;70.50
40538;DHT22;27925;41.874;12.526;2023-05-29T05:02:20;20.60;70.30
40538;DHT22;27925;41.874;12.526;2023-05-29T05:04:46;20.60;70.70
40538;DHT22;27925;41.874;12.526;2023-05-29T05:07:12;20.60;70.40
40538;DHT22;27925;41.874;12.526;2023-05-29T05:09:38;20.60;70.30
40538;DHT22;27925;41.874;12.526;2023-05-29T05:12:04;20.60;70.50
40538;DHT22;27925;41.874;12.526;2023-05-29T05:14:31;20.60;70.50
40538;DHT22;27925;41.874;12.526;2023-05-29T05:16:56;20.80;70.20
40538;DHT22;27925;41.874;12.526;2023-05-29T05:19:22;20.90;69.90
40538;DHT22;27925;41.874;12.526;2023-05-29T05:21:48;21.00;69.50
40538;DHT22;27925;41.874;12.526;2023-05-29T05:24:13;21.10;69.30
40538;DHT22;27925;41.874;12.526;2023-05-29T05:26:39;21.30;69.00
40538;DHT22;27925;41.874;12.526;2023-05-29T05:29:05;21.50;68.60
40538;DHT22;27925;41.874;12.526;2023-05-29T05:31:30;21.90;68.10
40538;DHT22;27925;41.874;12.526;2023-05-29T05:33:56;22.30;67.40
40538;DHT22;27925;41.874;12.526;2023-05-29T05:36:22;22.60;66.70
40538;DHT22;27925;41.874;12.526;2023-05-29T05:38:48;22.90;66.40
40538;DHT22;27925;41.874;12.526;2023-05-29T05:41:13;23.10;65.90
40538;DHT22;27925;41.874;12.526;2023-05-29T05:43:39;23.30;65.80
40538;DHT22;27925;41.874;12.526;2023-05-29T05:46:05;23.60;64.80
40538;DHT22;27925;41.874;12.526;2023-05-29T05:48:31;23.80;64.70
40538;DHT22;27925;41.874;12.526;2023-05-29T05:50:56;23.90;64.50
40538;DHT22;27925;41.874;12.526;2023-05-29T05:53:22;24.00;64.20
40538;DHT22;27925;41.874;12.526;2023-05-29T05:55:48;24.10;63.80
40538;DHT22;27925;41.874;12.526;2023-05-29T05:58:13;24.30;63.60
40538;DHT22;27925;41.874;12.526;2023-05-29T06:00:40;24.40;63.20
40538;DHT22;27925;41.874;12.526;2023-05-29T06:03:05;24.50;63.40
40538;DHT22;27925;41.874;12.526;2023-05-29T06:05:31;24.60;63.20
40538;DHT22;27925;41.874;12.526;2023-05-29T06:07:59;24.80;63.20
40538;DHT22;27925;41.874;12.526;2023-05-29T06:10:25;25.00;62.20
40538;DHT22;27925;41.874;12.526;2023-05-29T06:12:50;25.20;61.50
40538;DHT22;27925;41.874;12.526;2023-05-29T06:15:17;25.30;61.60
40538;DHT22;27925;41.874;12.526;2023-05-29T06:17:43;25.40;61.70
40538;DHT22;27925;41.874;12.526;2023-05-29T06:20:09;25.50;61.10
40538;DHT22;27925;41.874;12.526;2023-05-29T06:22:39;25.70;61.00
40538;DHT22;27925;41.874;12.526;2023-05-29T06:25:05;26.10;60.20
40538;DHT22;27925;41.874;12.526;2023-05-29T06:27:31;26.00;59.70
40538;DHT22;27925;41.874;12.526;2023-05-29T06:29:57;26.10;59.60
40538;DHT22;27925;41.874;12.526;2023-05-29T06:32:23;26.10;59.70
40538;DHT22;27925;41.874;12.526;2023-05-29T06:34:48;26.20;59.30
40538;DHT22;27925;41.874;12.526;2023-05-29T06:37:14;26.30;59.00
40538;DHT22;27925;41.874;12.526;2023-05-29T06:39:40;26.60;59.10
40538;DHT22;27925;41.874;12.526;2023-05-29T06:42:07;26.70;58.60
40538;DHT22;27925;41.874;12.526;2023-05-29T06:44:33;26.70;58.10
40538;DHT22;27925;41.874;12.526;2023-05-29T06:46:59;26.70;58.30
40538;DHT22;27925;41.874;12.526;2023-05-29T06:49:25;26.80;58.00
40538;DHT22;27925;41.874;12.526;2023-05-29T06:51:51;26.70;58.20
40538;DHT22;27925;41.874;12.526;2023-05-29T06:54:16;26.70;57.90
40538;DHT22;27925;41.874;12.526;2023-05-29T06:56:42;26.70;57.60
40538;DHT22;27925;41.874;12.526;2023-05-29T06:59:08;26.60;57.70
40538;DHT22;27925;41.874;12.526;2023-05-29T07:01:34;26.50;58.10
40538;DHT22;27925;41.874;12.526;2023-05-29T07:03:59;26.60;58.10
40538;DHT22;27925;41.874;12.526;2023-05-29T07:06:25;26.70;57.70
40538;DHT22;27925;41.874;12.526;2023-05-29T07:08:51;26.80;57.60
40538;DHT22;27925;41.874;12.526;2023-05-29T07:11:17;27.00;57.30
40538;DHT22;27925;41.874;12.526;2023-05-29T07:13:42;27.10;56.70
40538;DHT22;27925;41.874;12.526;2023-05-29T07:16:08;27.10;56.50
40538;DHT22;27925;41.874;12.526;2023-05-29T07:18:34;27.10;55.90
40538;DHT22;27925;41.874;12.526;2023-05-29T07:21:00;27.20;56.10
40538;DHT22;27925;41.874;12.526;2023-05-29T07:23:26;27.30;56.00
40538;DHT22;27925;41.874;12.526;2023-05-29T07:25:52;27.50;56.20
40538;DHT22;27925;41.874;12.526;2023-05-29T07:28:17;27.60;55.50
40538;DHT22;27925;41.874;12.526;2023-05-29T07:30:43;27.70;55.40
40538;DHT22;27925;41.874;12.526;2023-05-29T07:33:09;27.80;55.40
40538;DHT22;27925;41.874;12.526;2023-05-29T07:35:35;27.80;54.80
40538;DHT22;27925;41.874;12.526;2023-05-29T07:38:01;27.80;54.20
40538;DHT22;27925;41.874;12.526;2023-05-29T07:40:26;27.70;53.80
40538;DHT22;27925;41.874;12.526;2023-05-29T07:42:52;27.60;53.70
40538;DHT22;27925;41.874;12.526;2023-05-29T07:45:18;27.60;53.50
40538;DHT22;27925;41.874;12.526;2023-05-29T07:47:44;27.60;53.40
40538;DHT22;27925;41.874;12.526;2023-05-29T07:50:10;27.70;53.20
40538;DHT22;27925;41.874;12.526;2023-05-29T07:52:36;27.80;53.00
40538;DHT22;27925;41.874;12.526;2023-05-29T07:55:01;27.80;53.10
40538;DHT22;27925;41.874;12.526;2023-05-29T07:57:28;27.80;53.00
40538;DHT22;27925;41.874;12.526;2023-05-29T07:59:54;27.80;53.10
40538;DHT22;27925;41.874;12.526;2023-05-29T08:02:20;27.70;53.10
40538;DHT22;27925;41.874;12.526;2023-05-29T08:04:46;27.50;53.40
40538;DHT22;27925;41.874;12.526;2023-05-29T08:07:12;27.50;53.20
40538;DHT22;27925;41.874;12.526;2023-05-29T08:09:38;27.50;53.40
40538;DHT22;27925;41.874;12.526;2023-05-29T08:12:04;27.40;53.50
40538;DHT22;27925;41.874;12.526;2023-05-29T08:14:31;27.40;53.80
40538;DHT22;27925;41.874;12.526;2023-05-29T08:16:56;27.30;54.10
40538;DHT22;27925;41.874;12.526;2023-05-29T08:19:23;27.30;54.30
40538;DHT22;27925;41.874;12.526;2023-05-29T08:21:49;27.20;54.40
40538;DHT22;27925;41.874;12.526;2023-05-29T08:24:14;27.20;54.70
40538;DHT22;27925;41.874;12.526;2023-05-29T08:26:40;27.20;54.90
40538;DHT22;27925;41.874;12.526;2023-05-29T08:29:06;27.20;55.30
40538;DHT22;27925;41.874;12.526;2023-05-29T08:31:32;27.10;54.90
40538;DHT22;27925;41.874;12.526;2023-05-29T08:33:58;27.00;54.90
40538;DHT22;27925;41.874;12.526;2023-05-29T08:36:24;27.00;55.10
40538;DHT22;27925;41.874;12.526;2023-05-29T08:38:50;26.90;55.10
40538;DHT22;27925;41.874;12.526;2023-05-29T08:44:23;26.90;54.40
40538;DHT22;27925;41.874;12.526;2023-05-29T08:46:55;26.90;55.10
40538;DHT22;27925;41.874;12.526;2023-05-29T08:49:21;26.90;55.40
40538;DHT22;27925;41.874;12.526;2023-05-29T08:51:51;26.90;55.20
40538;DHT22;27925;41.874;12.526;2023-05-29T08:54:21;26.90;55.50
40538;DHT22;27925;41.874;12.526;2023-05-29T08:56:47;26.90;55.50
40538;DHT22;27925;41.874;12.526;2023-05-29T08:59:13;26.90;55.20
40538;DHT22;27925;41.874;12.526;2023-05-29T09:01:40;26.90;55.20
40538;DHT22;27925;41.874;12.526;2023-05-29T09:04:05;26.80;55.00
40538;DHT22;27925;41.874;12.526;2023-05-29T09:06:31;26.80;55.70
40538;DHT22;27925;41.874;12.526;2023-05-29T09:08:57;26.80;55.20
40538;DHT22;27925;41.874;12.526;2023-05-29T09:11:23;26.80;55.70
40538;DHT22;27925;41.874;12.526;2023-05-29T09:13:49;26.80;55.60
40538;DHT22;27925;41.874;12.526;2023-05-29T09:16:16;26.90;55.10
40538;DHT22;27925;41.874;12.526;2023-05-29T09:18:42;26.90;55.10
40538;DHT22;27925;41.874;12.526;2023-05-29T09:21:25;26.90;55.30
40538;DHT22;27925;41.874;12.526;2023-05-29T09:23:53;26.90;55.10
40538;DHT22;27925;41.874;12.526;2023-05-29T09:26:21;26.90;55.70
40538;DHT22;27925;41.874;12.526;2023-05-29T09:28:48;26.90;55.20
40538;DHT22;27925;41.874;12.526;2023-05-29T09:31:15;26.90;54.80
40538;DHT22;27925;41.874;12.526;2023-05-29T09:33:47;26.90;54.20
40538;DHT22;27925;41.874;12.526;2023-05-29T09:36:21;27.00;54.10
40538;DHT22;27925;41.874;12.526;2023-05-29T09:38:51;27.10;54.20
40538;DHT22;27925;41.874;12.526;2023-05-29T09:41:23;27.00;53.60
40538;DHT22;27925;41.874;12.526;2023-05-29T09:43:50;27.00;52.70
40538;DHT22;27925;41.874;12.526;2023-05-29T09:46:16;27.10;53.10
40538;DHT22;27925;41.874;12.526;2023-05-29T09:48:45;27.10;52.70
40538;DHT22;27925;41.874;12.526;2023-05-29T09:51:21;27.10;54.20
40538;DHT22;27925;41.874;12.526;2023-05-29T09:53:50;27.10;54.30
40538;DHT22;27925;41.874;12.526;2023-05-29T09:56:23;27.10;54.00
40538;DHT22;27925;41.874;12.526;2023-05-29T09:58:51;27.20;54.30
40538;DHT22;27925;41.874;12.526;2023-05-29T10:01:18;27.20;54.60
40538;DHT22;27925;41.874;12.526;2023-05-29T10:03:45;27.30;54.40
40538;DHT22;27925;41.874;12.526;2023-05-29T10:06:15;27.30;53.80
40538;DHT22;27925;41.874;12.526;2023-05-29T10:08:46;27.30;53.60
40538;DHT22;27925;41.874;12.526;2023-05-29T10:11:21;27.30;53.50
40538;DHT22;27925;41.874;12.526;2023-05-29T10:13:52;27.40;53.60
40538;DHT22;27925;41.874;12.526;2023-05-29T10:16:21;27.50;53.90
40538;DHT22;27925;41.874;12.526;2023-05-29T10:18:53;27.60;53.80
40538;DHT22;27925;41.874;12.526;2023-05-29T10:21:26;27.70;53.70
40538;DHT22;27925;41.874;12.526;2023-05-29T10:23:53;27.80;53.40
40538;DHT22;27925;41.874;12.526;2023-05-29T10:26:22;27.80;52.60
40538;DHT22;27925;41.874;12.526;2023-05-29T10:28:59;27.80;52.40
40538;DHT22;27925;41.874;12.526;2023-05-29T10:31:33;27.90;53.20
40538;DHT22;27925;41.874;12.526;2023-05-29T10:37:06;28.00;51.50
40538;DHT22;27925;41.874;12.526;2023-05-29T10:39:34;28.00;52.10
40538;DHT22;27925;41.874;12.526;2023-05-29T10:41:59;28.10;52.00
40538;DHT22;27925;41.874;12.526;2023-05-29T10:47:02;28.20;52.60
40538;DHT22;27925;41.874;12.526;2023-05-29T10:49:29;28.30;52.60
40538;DHT22;27925;41.874;12.526;2023-05-29T10:51:57;28.40;52.80
40538;DHT22;27925;41.874;12.526;2023-05-29T10:54:25;28.40;53.10
40538;DHT22;27925;41.874;12.526;2023-05-29T10:56:58;28.50;53.10
40538;DHT22;27925;41.874;12.526;2023-05-29T10:59:26;28.50;53.00
40538;DHT22;27925;41.874;12.526;2023-05-29T11:01:54;28.50;52.70
40538;DHT22;27925;41.874;12.526;2023-05-29T11:06:46;28.30;52.20
40538;DHT22;27925;41.874;12.526;2023-05-29T11:09:46;28.30;52.60
40538;DHT22;27925;41.874;12.526;2023-05-29T11:12:25;28.30;51.20
40538;DHT22;27925;41.874;12.526;2023-05-29T11:15:05;28.30;53.00
40538;DHT22;27925;41.874;12.526;2023-05-29T11:20:08;28.50;51.80
40538;DHT22;27925;41.874;12.526;2023-05-29T11:22:56;28.50;52.60
40538;DHT22;27925;41.874;12.526;2023-05-29T11:25:26;28.60;52.80
40538;DHT22;27925;41.874;12.526;2023-05-29T11:27:52;28.60;53.10
40538;DHT22;27925;41.874;12.526;2023-05-29T11:30:21;28.70;53.10
40538;DHT22;27925;41.874;12.526;2023-05-29T11:32:48;28.70;53.00
40538;DHT22;27925;41.874;12.526;2023-05-29T11:35:14;28.70;53.10
40538;DHT22;27925;41.874;12.526;2023-05-29T11:37:44;28.70;53.00
40538;DHT22;27925;41.874;12.526;2023-05-29T11:40:12;28.70;53.20
40538;DHT22;27925;41.874;12.526;2023-05-29T11:42:42;28.60;53.70
40538;DHT22;27925;41.874;12.526;2023-05-29T11:48:00;28.50;53.40
40538;DHT22;27925;41.874;12.526;2023-05-29T11:50:31;28.50;53.90
40538;DHT22;27925;41.874;12.526;2023-05-29T11:52:58;28.50;54.20
40538;DHT22;27925;41.874;12.526;2023-05-29T11:55:25;28.60;54.20
40538;DHT22;27925;41.874;12.526;2023-05-29T11:57:56;28.60;54.30
40538;DHT22;27925;41.874;12.526;2023-05-29T12:00:22;28.60;53.80
40538;DHT22;27925;41.874;12.526;2023-05-29T12:02:51;28.60;53.60
40538;DHT22;27925;41.874;12.526;2023-05-29T12:05:17;28.60;55.60
40538;DHT22;27925;41.874;12.526;2023-05-29T12:08:02;28.60;54.20
40538;DHT22;27925;41.874;12.526;2023-05-29T12:10:30;28.50;54.30
40538;DHT22;27925;41.874;12.526;2023-05-29T12:12:57;28.40;55.00
40538;DHT22;27925;41.874;12.526;2023-05-29T12:15:23;28.40;54.20
40538;DHT22;27925;41.874;12.526;2023-05-29T12:17:50;28.40;54.90
40538;DHT22;27925;41.874;12.526;2023-05-29T12:20:17;28.50;54.30
40538;DHT22;27925;41.874;12.526;2023-05-29T12:22:44;28.60;54.90
40538;DHT22;27925;41.874;12.526;2023-05-29T12:25:19;28.70;54.30
40538;DHT22;27925;41.874;12.526;2023-05-29T12:27:46;28.70;52.70
40538;DHT22;27925;41.874;12.526;2023-05-29T12:30:30;28.80;53.40
40538;DHT22;27925;41.874;12.526;2023-05-29T12:32:56;28.90;53.60
40538;DHT22;27925;41.874;12.526;2023-05-29T12:35:27;28.90;53.40
40538;DHT22;27925;41.874;12.526;2023-05-29T12:40:23;28.90;53.20
40538;DHT22;27925;41.874;12.526;2023-05-29T12:43:01;29.00;51.20
40538;DHT22;27925;41.874;12.526;2023-05-29T12:45:32;29.00;50.40
40538;DHT22;27925;41.874;12.526;2023-05-29T12:48:05;29.10;52.30
40538;DHT22;27925;41.874;12.526;2023-05-29T12:50:37;29.20;52.50
40538;DHT22;27925;41.874;12.526;2023-05-29T12:53:08;29.20;52.40
40538;DHT22;27925;41.874;12.526;2023-05-29T12:55:36;29.30;51.60
40538;DHT22;27925;41.874;12.526;2023-05-29T12:58:03;29.30;52.90
40538;DHT22;27925;41.874;12.526;2023-05-29T13:00:29;29.40;51.40
40538;DHT22;27925;41.874;12.526;2023-05-29T13:02:56;29.40;50.90
40538;DHT22;27925;41.874;12.526;2023-05-29T13:05:22;29.30;50.50
40538;DHT22;27925;41.874;12.526;2023-05-29T13:07:51;29.40;50.90
40538;DHT22;27925;41.874;12.526;2023-05-29T13:10:18;29.40;52.20
40538;DHT22;27925;41.874;12.526;2023-05-29T13:12:44;29.40;51.80
40538;DHT22;27925;41.874;12.526;2023-05-29T13:15:12;29.40;50.80
40538;DHT22;27925;41.874;12.526;2023-05-29T13:17:38;29.40;50.50
40538;DHT22;27925;41.874;12.526;2023-05-29T13:20:09;29.40;50.30
40538;DHT22;27925;41.874;12.526;2023-05-29T13:22:36;29.50;49.80
40538;DHT22;27925;41.874;12.526;2023-05-29T13:25:02;29.50;50.00
40538;DHT22;27925;41.874;12.526;2023-05-29T13:27:28;29.60;50.60
40538;DHT22;27925;41.874;12.526;2023-05-29T13:29:54;29.80;49.90
40538;DHT22;27925;41.874;12.526;2023-05-29T13:32:20;29.80;49.50
40538;DHT22;27925;41.874;12.526;2023-05-29T13:34:46;29.80;49.60
40538;DHT22;27925;41.874;12.526;2023-05-29T13:43:18;29.80;47.40
40538;DHT22;27925;41.874;12.526;2023-05-29T13:45:44;29.80;48.80
40538;DHT22;27925;41.874;12.526;2023-05-29T13:48:10;29.80;48.50
40538;DHT22;27925;41.874;12.526;2023-05-29T13:50:36;29.80;48.30
40538;DHT22;27925;41.874;12.526;2023-05-29T13:53:01;29.80;49.20
40538;DHT22;27925;41.874;12.526;2023-05-29T13:55:27;29.80;49.10
40538;DHT22;27925;41.874;12.526;2023-05-29T13:57:53;29.80;49.50
40538;DHT22;27925;41.874;12.526;2023-05-29T14:00:19;29.80;49.50
40538;DHT22;27925;41.874;12.526;2023-05-29T14:02:44;29.90;48.90
40538;DHT22;27925;41.874;12.526;2023-05-29T14:05:10;30.00;49.60
40538;DHT22;27925;41.874;12.526;2023-05-29T14:07:36;29.90;49.00
40538;DHT22;27925;41.874;12.526;2023-05-29T14:10:02;30.00;49.40
40538;DHT22;27925;41.874;12.526;2023-05-29T14:12:28;30.00;48.60
40538;DHT22;27925;41.874;12.526;2023-05-29T14:14:54;30.00;49.00
40538;DHT22;27925;41.874;12.526;2023-05-29T14:17:20;30.10;48.90
40538;DHT22;27925;41.874;12.526;2023-05-29T14:19:45;30.10;48.70
40538;DHT22;27925;41.874;12.526;2023-05-29T14:22:13;30.20;48.50
40538;DHT22;27925;41.874;12.526;2023-05-29T14:24:38;30.10;48.80
40538;DHT22;27925;41.874;12.526;2023-05-29T14:27:05;30.00;49.10
40538;DHT22;27925;41.874;12.526;2023-05-29T14:29:31;30.00;48.60
40538;DHT22;27925;41.874;12.526;2023-05-29T14:31:56;30.00;48.50
40538;DHT22;27925;41.874;12.526;2023-05-29T14:34:22;30.00;48.70
40538;DHT22;27925;41.874;12.526;2023-05-29T14:36:48;30.10;48.80
40538;DHT22;27925;41.874;12.526;2023-05-29T14:39:13;30.10;48.80
40538;DHT22;27925;41.874;12.526;2023-05-29T14:41:39;30.10;48.30
40538;DHT22;27925;41.874;12.526;2023-05-29T14:44:05;30.00;48.30
40538;DHT22;27925;41.874;12.526;2023-05-29T14:46:30;30.00;48.00
40538;DHT22;27925;41.874;12.526;2023-05-29T14:49:00;29.90;47.60
40538;DHT22;27925;41.874;12.526;2023-05-29T14:51:26;29.90;49.00
40538;DHT22;27925;41.874;12.526;2023-05-29T14:53:51;29.90;48.90
40538;DHT22;27925;41.874;12.526;2023-05-29T14:56:17;29.80;48.80
40538;DHT22;27925;41.874;12.526;2023-05-29T14:58:46;29.70;47.50
40538;DHT22;27925;41.874;12.526;2023-05-29T15:01:14;29.60;48.70
40538;DHT22;27925;41.874;12.526;2023-05-29T15:03:40;29.30;49.70
40538;DHT22;27925;41.874;12.526;2023-05-29T15:06:06;29.00;50.10
40538;DHT22;27925;41.874;12.526;2023-05-29T15:08:32;28.70;50.70
40538;DHT22;27925;41.874;12.526;2023-05-29T15:11:01;28.40;50.90
40538;DHT22;27925;41.874;12.526;2023-05-29T15:13:28;28.10;51.20
40538;DHT22;27925;41.874;12.526;2023-05-29T15:15:54;27.90;51.80
40538;DHT22;27925;41.874;12.526;2023-05-29T15:18:20;27.50;52.10
40538;DHT22;27925;41.874;12.526;2023-05-29T15:20:46;27.30;52.10
40538;DHT22;27925;41.874;12.526;2023-05-29T15:23:11;27.10;52.20
40538;DHT22;27925;41.874;12.526;2023-05-29T15:25:37;27.00;52.70
40538;DHT22;27925;41.874;12.526;2023-05-29T15:28:03;26.90;52.70
40538;DHT22;27925;41.874;12.526;2023-05-29T15:30:28;26.60;53.00
40538;DHT22;27925;41.874;12.526;2023-05-29T15:32:54;26.40;53.70
40538;DHT22;27925;41.874;12.526;2023-05-29T15:35:20;26.10;54.40
40538;DHT22;27925;41.874;12.526;2023-05-29T15:37:46;25.90;54.90
40538;DHT22;27925;41.874;12.526;2023-05-29T15:40:11;26.00;55.00
40538;DHT22;27925;41.874;12.526;2023-05-29T15:42:37;25.90;54.90
40538;DHT22;27925;41.874;12.526;2023-05-29T15:45:04;25.80;55.10
40538;DHT22;27925;41.874;12.526;2023-05-29T15:47:30;25.70;55.10